KBHB

Hancock County-Bar Harbor Airport

Bar Harbor, Maine, USA

KBHB 110856Z AUTO 25003KT 10SM OVC100 M02/M03 A2988 RMK AO2 SLP121 6//// T10221033 58007 FZRANO PNO $

Observed Flight Rules
Dec-11 @ 08:56 UTC (24 minutes ago) Visual Flight Rules
Wind Visibility Clouds
250° at 3 knots 10 miles
  • Overcast at 10,000' AGL
Temperatures Readings
Current -2°C / 28°F
Dewpoint -3°C / 27°F
Humidity 93%
Altimeter 29.88" Hg
Pressure 1012.1 hPa
Elevation 26
Observed Flight Rules
Dec-11 @ 08:56 UTC
(24 minutes ago)
VFR
Wind Visibility
250° at 3 knots 10 miles
Clouds
  • Overcast at 10,000' AGL
Temperature Dewpoint
-2°C / 28°F -3°C / 27°F
Humidity Altimeter Pressure
93% 29.88" Hg 1012.1 hPa